aviador You're here:

KGGI Decoded Metar

GRINNELL REG in IA, USA
Report Time2017-07-26 06:15:00
UTC Time2017-07-26 06:28:13
Flight Rules vfr VFR
Wind150° at 05 kt
W.Decomp.*RWY 13: 4.8 kt HW 1.5 kt RCW
W.Rank150° ranks 2
Current wind is below 150° avg. (8.7)
Visibility9999 m
Phenomena:N/A
Clouds:N/A
Expected CloudBase > 1,200 ft AGL from Temp-Dew spread
CeilingNone
Temp23°C (ISA +10)
Dew Point20°C (83% RH)
QNH1018 hPa
Density Alt2,313 ft
Elevation1,007 ft
Report Wrong Elevation
Raw Report
METAR KGGI 260615Z AUTO 15005KT 10SM CLR 23/20 A3006 RMK AO2 T02250196=

Extra information for KGGI:More info

Metar Taf Metar & Taf Last 4 Metars F.Rules Stats Wind Profile Meteogram Temp Stats Airport Information Weather charts Add Link Nearby VenuesMetar ALERT Operation Metar Decoded Social comments

AIRNAV info for KGGI